sensor_id;sensor_type;location;lat;lon;timestamp;temperature;humidity
75927;DHT22;64605;48.296;16.416;2023-02-01T00:01:51;6.70;64.50
75927;DHT22;64605;48.296;16.416;2023-02-01T00:04:16;6.80;64.70
75927;DHT22;64605;48.296;16.416;2023-02-01T00:06:42;6.70;64.70
75927;DHT22;64605;48.296;16.416;2023-02-01T00:09:08;6.70;64.80
75927;DHT22;64605;48.296;16.416;2023-02-01T00:11:34;6.70;64.80
75927;DHT22;64605;48.296;16.416;2023-02-01T00:13:59;6.80;65.00
75927;DHT22;64605;48.296;16.416;2023-02-01T00:16:27;6.80;65.00
75927;DHT22;64605;48.296;16.416;2023-02-01T00:19:13;6.80;65.10
75927;DHT22;64605;48.296;16.416;2023-02-01T00:21:40;6.80;65.10
75927;DHT22;64605;48.296;16.416;2023-02-01T00:24:06;6.80;65.40
75927;DHT22;64605;48.296;16.416;2023-02-01T00:26:34;6.70;65.70
75927;DHT22;64605;48.296;16.416;2023-02-01T00:29:02;6.70;65.70
75927;DHT22;64605;48.296;16.416;2023-02-01T00:31:28;6.70;65.60
75927;DHT22;64605;48.296;16.416;2023-02-01T00:33:54;6.80;65.40
75927;DHT22;64605;48.296;16.416;2023-02-01T00:36:20;6.80;65.40
75927;DHT22;64605;48.296;16.416;2023-02-01T00:38:45;6.80;65.20
75927;DHT22;64605;48.296;16.416;2023-02-01T00:41:17;6.90;65.20
75927;DHT22;64605;48.296;16.416;2023-02-01T00:43:43;6.90;65.20
75927;DHT22;64605;48.296;16.416;2023-02-01T00:46:10;6.90;65.00
75927;DHT22;64605;48.296;16.416;2023-02-01T00:48:36;6.90;64.80
75927;DHT22;64605;48.296;16.416;2023-02-01T00:51:04;6.90;64.80
75927;DHT22;64605;48.296;16.416;2023-02-01T00:53:30;6.90;64.90
75927;DHT22;64605;48.296;16.416;2023-02-01T00:55:57;6.90;64.90
75927;DHT22;64605;48.296;16.416;2023-02-01T00:58:23;6.90;65.00
75927;DHT22;64605;48.296;16.416;2023-02-01T01:01:01;6.90;65.20
75927;DHT22;64605;48.296;16.416;2023-02-01T01:03:27;6.80;65.30
75927;DHT22;64605;48.296;16.416;2023-02-01T01:05:57;6.80;65.40
75927;DHT22;64605;48.296;16.416;2023-02-01T01:08:23;6.90;65.30
75927;DHT22;64605;48.296;16.416;2023-02-01T01:10:48;6.90;65.20
75927;DHT22;64605;48.296;16.416;2023-02-01T01:13:15;6.90;65.20
75927;DHT22;64605;48.296;16.416;2023-02-01T01:15:41;6.90;65.20
75927;DHT22;64605;48.296;16.416;2023-02-01T01:18:07;6.90;65.20
75927;DHT22;64605;48.296;16.416;2023-02-01T01:20:38;6.90;65.50
75927;DHT22;64605;48.296;16.416;2023-02-01T01:23:05;6.90;65.60
75927;DHT22;64605;48.296;16.416;2023-02-01T01:25:31;6.90;65.50
75927;DHT22;64605;48.296;16.416;2023-02-01T01:27:56;6.90;65.50
75927;DHT22;64605;48.296;16.416;2023-02-01T01:30:22;6.80;65.50
75927;DHT22;64605;48.296;16.416;2023-02-01T01:32:48;6.90;65.50
75927;DHT22;64605;48.296;16.416;2023-02-01T01:35:14;6.80;65.40
75927;DHT22;64605;48.296;16.416;2023-02-01T01:37:39;6.80;65.50
75927;DHT22;64605;48.296;16.416;2023-02-01T01:40:06;6.80;65.60
75927;DHT22;64605;48.296;16.416;2023-02-01T01:42:43;6.70;65.80
75927;DHT22;64605;48.296;16.416;2023-02-01T01:47:48;6.70;66.00
75927;DHT22;64605;48.296;16.416;2023-02-01T01:50:19;6.70;65.90
75927;DHT22;64605;48.296;16.416;2023-02-01T01:52:50;6.70;66.00
75927;DHT22;64605;48.296;16.416;2023-02-01T01:55:18;6.70;66.10
75927;DHT22;64605;48.296;16.416;2023-02-01T01:57:52;6.70;66.10
75927;DHT22;64605;48.296;16.416;2023-02-01T02:00:21;6.80;66.20
75927;DHT22;64605;48.296;16.416;2023-02-01T02:02:49;6.90;66.00
75927;DHT22;64605;48.296;16.416;2023-02-01T02:05:19;7.00;65.80
75927;DHT22;64605;48.296;16.416;2023-02-01T02:07:47;7.10;65.40
75927;DHT22;64605;48.296;16.416;2023-02-01T02:10:15;7.10;65.30
75927;DHT22;64605;48.296;16.416;2023-02-01T02:12:43;7.10;65.30
75927;DHT22;64605;48.296;16.416;2023-02-01T02:15:12;7.10;65.30
75927;DHT22;64605;48.296;16.416;2023-02-01T02:18:09;7.10;65.40
75927;DHT22;64605;48.296;16.416;2023-02-01T02:23:50;7.20;65.10
75927;DHT22;64605;48.296;16.416;2023-02-01T02:26:25;7.30;64.90
75927;DHT22;64605;48.296;16.416;2023-02-01T02:34:49;7.40;64.50
75927;DHT22;64605;48.296;16.416;2023-02-01T02:40:04;7.50;64.20
75927;DHT22;64605;48.296;16.416;2023-02-01T02:43:10;7.60;64.00
75927;DHT22;64605;48.296;16.416;2023-02-01T02:46:09;7.60;63.80
75927;DHT22;64605;48.296;16.416;2023-02-01T02:54:30;7.70;63.30
75927;DHT22;64605;48.296;16.416;2023-02-01T02:57:30;7.80;63.20
75927;DHT22;64605;48.296;16.416;2023-02-01T03:00:17;7.80;62.90
75927;DHT22;64605;48.296;16.416;2023-02-01T03:03:02;7.80;62.70
75927;DHT22;64605;48.296;16.416;2023-02-01T03:05:48;7.80;62.70
75927;DHT22;64605;48.296;16.416;2023-02-01T03:13:47;7.70;62.80
75927;DHT22;64605;48.296;16.416;2023-02-01T03:19:09;7.70;63.00
75927;DHT22;64605;48.296;16.416;2023-02-01T03:21:45;7.60;63.00
75927;DHT22;64605;48.296;16.416;2023-02-01T03:24:21;7.60;63.10
75927;DHT22;64605;48.296;16.416;2023-02-01T03:26:53;7.60;63.10
75927;DHT22;64605;48.296;16.416;2023-02-01T03:29:25;7.60;63.00
75927;DHT22;64605;48.296;16.416;2023-02-01T03:31:52;7.60;62.90
75927;DHT22;64605;48.296;16.416;2023-02-01T03:34:18;7.60;62.80
75927;DHT22;64605;48.296;16.416;2023-02-01T03:37:08;7.50;62.70
75927;DHT22;64605;48.296;16.416;2023-02-01T03:39:38;7.50;62.80
75927;DHT22;64605;48.296;16.416;2023-02-01T03:47:44;7.50;62.90
75927;DHT22;64605;48.296;16.416;2023-02-01T03:50:14;7.60;62.80
75927;DHT22;64605;48.296;16.416;2023-02-01T03:52:48;7.50;62.70
75927;DHT22;64605;48.296;16.416;2023-02-01T03:55:18;7.60;62.60
75927;DHT22;64605;48.296;16.416;2023-02-01T03:58:15;7.60;62.50
75927;DHT22;64605;48.296;16.416;2023-02-01T04:00:44;7.60;62.40
75927;DHT22;64605;48.296;16.416;2023-02-01T04:03:10;7.60;62.20
75927;DHT22;64605;48.296;16.416;2023-02-01T04:05:36;7.60;62.10
75927;DHT22;64605;48.296;16.416;2023-02-01T04:08:02;7.70;61.70
75927;DHT22;64605;48.296;16.416;2023-02-01T04:10:28;7.60;61.80
75927;DHT22;64605;48.296;16.416;2023-02-01T04:12:53;7.60;61.90
75927;DHT22;64605;48.296;16.416;2023-02-01T04:15:19;7.60;61.80
75927;DHT22;64605;48.296;16.416;2023-02-01T04:17:45;7.70;61.80
75927;DHT22;64605;48.296;16.416;2023-02-01T04:20:10;7.70;61.50
75927;DHT22;64605;48.296;16.416;2023-02-01T04:22:36;7.70;61.60
75927;DHT22;64605;48.296;16.416;2023-02-01T04:25:02;7.70;61.80
75927;DHT22;64605;48.296;16.416;2023-02-01T04:27:28;7.70;61.80
75927;DHT22;64605;48.296;16.416;2023-02-01T04:29:54;7.70;61.90
75927;DHT22;64605;48.296;16.416;2023-02-01T04:32:19;7.70;62.10
75927;DHT22;64605;48.296;16.416;2023-02-01T04:34:45;7.70;62.30
75927;DHT22;64605;48.296;16.416;2023-02-01T04:37:11;7.70;62.30
75927;DHT22;64605;48.296;16.416;2023-02-01T04:39:37;7.70;62.40
75927;DHT22;64605;48.296;16.416;2023-02-01T04:42:03;7.70;62.50
75927;DHT22;64605;48.296;16.416;2023-02-01T04:44:28;7.80;62.70
75927;DHT22;64605;48.296;16.416;2023-02-01T04:46:54;7.80;62.70
75927;DHT22;64605;48.296;16.416;2023-02-01T04:49:20;7.80;62.50
75927;DHT22;64605;48.296;16.416;2023-02-01T04:51:47;7.80;62.70
75927;DHT22;64605;48.296;16.416;2023-02-01T04:54:13;7.80;62.80
75927;DHT22;64605;48.296;16.416;2023-02-01T04:56:39;7.80;62.90
75927;DHT22;64605;48.296;16.416;2023-02-01T04:59:04;7.80;63.00
75927;DHT22;64605;48.296;16.416;2023-02-01T05:01:30;7.80;63.20
75927;DHT22;64605;48.296;16.416;2023-02-01T05:03:56;7.80;63.30
75927;DHT22;64605;48.296;16.416;2023-02-01T05:06:22;7.80;63.30
75927;DHT22;64605;48.296;16.416;2023-02-01T05:08:48;7.80;63.40
75927;DHT22;64605;48.296;16.416;2023-02-01T05:11:14;7.80;63.60
75927;DHT22;64605;48.296;16.416;2023-02-01T05:13:59;7.80;63.70
75927;DHT22;64605;48.296;16.416;2023-02-01T05:16:25;7.80;63.90
75927;DHT22;64605;48.296;16.416;2023-02-01T05:18:51;7.90;64.00
75927;DHT22;64605;48.296;16.416;2023-02-01T05:21:17;7.80;64.00
75927;DHT22;64605;48.296;16.416;2023-02-01T05:23:42;7.90;63.90
75927;DHT22;64605;48.296;16.416;2023-02-01T05:26:26;8.00;63.70
75927;DHT22;64605;48.296;16.416;2023-02-01T05:28:52;8.00;63.80
75927;DHT22;64605;48.296;16.416;2023-02-01T05:31:18;8.00;63.70
75927;DHT22;64605;48.296;16.416;2023-02-01T05:33:43;8.00;63.70
75927;DHT22;64605;48.296;16.416;2023-02-01T05:36:09;8.00;63.70
75927;DHT22;64605;48.296;16.416;2023-02-01T05:38:35;8.00;63.70
75927;DHT22;64605;48.296;16.416;2023-02-01T05:41:00;8.00;63.90
75927;DHT22;64605;48.296;16.416;2023-02-01T05:43:26;8.00;63.90
75927;DHT22;64605;48.296;16.416;2023-02-01T05:45:52;8.00;63.90
75927;DHT22;64605;48.296;16.416;2023-02-01T05:48:18;8.00;63.90
75927;DHT22;64605;48.296;16.416;2023-02-01T05:50:43;8.00;63.90
75927;DHT22;64605;48.296;16.416;2023-02-01T05:53:09;8.10;64.00
75927;DHT22;64605;48.296;16.416;2023-02-01T05:55:36;8.00;63.90
75927;DHT22;64605;48.296;16.416;2023-02-01T05:58:02;8.10;63.90
75927;DHT22;64605;48.296;16.416;2023-02-01T06:00:28;8.10;63.80
75927;DHT22;64605;48.296;16.416;2023-02-01T06:02:54;8.10;63.60
75927;DHT22;64605;48.296;16.416;2023-02-01T06:05:19;8.10;63.70
75927;DHT22;64605;48.296;16.416;2023-02-01T06:07:45;8.10;63.60
75927;DHT22;64605;48.296;16.416;2023-02-01T06:10:11;8.10;63.60
75927;DHT22;64605;48.296;16.416;2023-02-01T06:12:36;8.10;63.70
75927;DHT22;64605;48.296;16.416;2023-02-01T06:15:02;8.10;63.70
75927;DHT22;64605;48.296;16.416;2023-02-01T06:17:28;8.10;63.90
75927;DHT22;64605;48.296;16.416;2023-02-01T06:19:54;8.10;63.70
75927;DHT22;64605;48.296;16.416;2023-02-01T06:22:19;8.10;63.80
75927;DHT22;64605;48.296;16.416;2023-02-01T06:24:47;8.20;63.90
75927;DHT22;64605;48.296;16.416;2023-02-01T06:27:13;8.20;63.80
75927;DHT22;64605;48.296;16.416;2023-02-01T06:29:39;8.20;63.60
75927;DHT22;64605;48.296;16.416;2023-02-01T06:32:05;8.30;63.60
75927;DHT22;64605;48.296;16.416;2023-02-01T06:34:31;8.30;63.40
75927;DHT22;64605;48.296;16.416;2023-02-01T06:36:57;8.30;63.10
75927;DHT22;64605;48.296;16.416;2023-02-01T06:39:23;8.40;63.20
75927;DHT22;64605;48.296;16.416;2023-02-01T06:41:49;8.40;63.20
75927;DHT22;64605;48.296;16.416;2023-02-01T06:44:15;8.40;62.90
75927;DHT22;64605;48.296;16.416;2023-02-01T06:46:42;8.40;62.90
75927;DHT22;64605;48.296;16.416;2023-02-01T06:49:08;8.50;63.00
75927;DHT22;64605;48.296;16.416;2023-02-01T06:51:34;8.50;63.20
75927;DHT22;64605;48.296;16.416;2023-02-01T06:54:00;8.60;63.20
75927;DHT22;64605;48.296;16.416;2023-02-01T06:56:26;8.60;63.30
75927;DHT22;64605;48.296;16.416;2023-02-01T06:58:52;8.60;63.40
75927;DHT22;64605;48.296;16.416;2023-02-01T07:01:19;8.60;63.40
75927;DHT22;64605;48.296;16.416;2023-02-01T07:03:49;8.60;63.40
75927;DHT22;64605;48.296;16.416;2023-02-01T07:06:16;8.60;63.90
75927;DHT22;64605;48.296;16.416;2023-02-01T07:08:42;8.60;63.70
75927;DHT22;64605;48.296;16.416;2023-02-01T07:11:12;8.70;63.80
75927;DHT22;64605;48.296;16.416;2023-02-01T07:13:39;8.70;63.40
75927;DHT22;64605;48.296;16.416;2023-02-01T07:16:06;8.70;63.50
75927;DHT22;64605;48.296;16.416;2023-02-01T07:18:32;8.80;63.20
75927;DHT22;64605;48.296;16.416;2023-02-01T07:20:59;8.80;62.70
75927;DHT22;64605;48.296;16.416;2023-02-01T07:23:25;8.80;62.40
75927;DHT22;64605;48.296;16.416;2023-02-01T07:25:59;8.80;62.40
75927;DHT22;64605;48.296;16.416;2023-02-01T07:28:25;8.90;62.50
75927;DHT22;64605;48.296;16.416;2023-02-01T07:30:51;8.90;62.20
75927;DHT22;64605;48.296;16.416;2023-02-01T07:33:22;9.00;62.00
75927;DHT22;64605;48.296;16.416;2023-02-01T07:35:49;9.10;61.50
75927;DHT22;64605;48.296;16.416;2023-02-01T07:38:15;9.10;61.20
75927;DHT22;64605;48.296;16.416;2023-02-01T07:40:41;9.20;60.80
75927;DHT22;64605;48.296;16.416;2023-02-01T07:43:07;9.20;60.50
75927;DHT22;64605;48.296;16.416;2023-02-01T07:45:34;9.20;60.90
75927;DHT22;64605;48.296;16.416;2023-02-01T07:47:59;9.20;61.00
75927;DHT22;64605;48.296;16.416;2023-02-01T07:50:25;9.30;60.60
75927;DHT22;64605;48.296;16.416;2023-02-01T07:52:50;9.30;60.40
75927;DHT22;64605;48.296;16.416;2023-02-01T07:55:16;9.30;60.20
75927;DHT22;64605;48.296;16.416;2023-02-01T07:57:42;9.30;60.40
75927;DHT22;64605;48.296;16.416;2023-02-01T08:00:08;9.30;60.10
75927;DHT22;64605;48.296;16.416;2023-02-01T08:02:53;9.30;60.20
75927;DHT22;64605;48.296;16.416;2023-02-01T08:05:18;9.30;60.00
75927;DHT22;64605;48.296;16.416;2023-02-01T08:07:48;9.40;59.60
75927;DHT22;64605;48.296;16.416;2023-02-01T08:10:14;9.50;59.80
75927;DHT22;64605;48.296;16.416;2023-02-01T08:12:40;9.50;59.50
75927;DHT22;64605;48.296;16.416;2023-02-01T08:15:06;9.50;59.20
75927;DHT22;64605;48.296;16.416;2023-02-01T08:17:32;9.60;59.50
75927;DHT22;64605;48.296;16.416;2023-02-01T08:19:58;9.70;59.20
75927;DHT22;64605;48.296;16.416;2023-02-01T08:22:23;9.70;59.30
75927;DHT22;64605;48.296;16.416;2023-02-01T08:24:49;9.80;58.50
75927;DHT22;64605;48.296;16.416;2023-02-01T08:27:15;9.90;58.20
75927;DHT22;64605;48.296;16.416;2023-02-01T08:29:40;10.00;57.80
75927;DHT22;64605;48.296;16.416;2023-02-01T08:32:06;10.00;58.10
75927;DHT22;64605;48.296;16.416;2023-02-01T08:34:32;10.20;58.10
75927;DHT22;64605;48.296;16.416;2023-02-01T08:36:58;10.30;57.60
75927;DHT22;64605;48.296;16.416;2023-02-01T08:39:24;10.30;57.20
75927;DHT22;64605;48.296;16.416;2023-02-01T08:41:50;10.40;57.70
75927;DHT22;64605;48.296;16.416;2023-02-01T08:44:34;10.50;57.20
75927;DHT22;64605;48.296;16.416;2023-02-01T08:47:01;10.60;56.80
75927;DHT22;64605;48.296;16.416;2023-02-01T08:49:26;10.70;56.20
75927;DHT22;64605;48.296;16.416;2023-02-01T08:51:52;10.70;56.50
75927;DHT22;64605;48.296;16.416;2023-02-01T08:54:18;10.80;55.60
75927;DHT22;64605;48.296;16.416;2023-02-01T08:56:43;10.80;55.70
75927;DHT22;64605;48.296;16.416;2023-02-01T08:59:09;10.80;55.10
75927;DHT22;64605;48.296;16.416;2023-02-01T09:01:34;10.70;55.50
75927;DHT22;64605;48.296;16.416;2023-02-01T09:04:00;10.60;55.70
75927;DHT22;64605;48.296;16.416;2023-02-01T09:06:25;10.50;55.20
75927;DHT22;64605;48.296;16.416;2023-02-01T09:08:51;10.30;55.80
75927;DHT22;64605;48.296;16.416;2023-02-01T09:11:18;10.30;56.50
75927;DHT22;64605;48.296;16.416;2023-02-01T09:13:45;10.30;56.70
75927;DHT22;64605;48.296;16.416;2023-02-01T09:16:11;10.40;56.80
75927;DHT22;64605;48.296;16.416;2023-02-01T09:18:37;10.40;56.50
75927;DHT22;64605;48.296;16.416;2023-02-01T09:21:09;10.30;57.10
75927;DHT22;64605;48.296;16.416;2023-02-01T09:23:35;10.20;58.00
75927;DHT22;64605;48.296;16.416;2023-02-01T09:26:04;10.10;58.40
75927;DHT22;64605;48.296;16.416;2023-02-01T09:28:31;10.10;59.50
75927;DHT22;64605;48.296;16.416;2023-02-01T09:30:57;10.00;59.30
75927;DHT22;64605;48.296;16.416;2023-02-01T09:33:24;9.90;59.60
75927;DHT22;64605;48.296;16.416;2023-02-01T09:35:56;10.00;59.50
75927;DHT22;64605;48.296;16.416;2023-02-01T09:38:21;9.90;59.40
75927;DHT22;64605;48.296;16.416;2023-02-01T09:40:47;9.90;59.90
75927;DHT22;64605;48.296;16.416;2023-02-01T09:46:23;10.00;60.60
75927;DHT22;64605;48.296;16.416;2023-02-01T09:48:53;10.00;59.90
75927;DHT22;64605;48.296;16.416;2023-02-01T09:51:31;10.00;60.60
75927;DHT22;64605;48.296;16.416;2023-02-01T09:54:05;10.10;60.60
75927;DHT22;64605;48.296;16.416;2023-02-01T09:56:48;10.20;60.00
75927;DHT22;64605;48.296;16.416;2023-02-01T10:01:56;10.20;59.70
75927;DHT22;64605;48.296;16.416;2023-02-01T10:04:22;10.20;59.70
75927;DHT22;64605;48.296;16.416;2023-02-01T10:09:52;10.30;59.70
75927;DHT22;64605;48.296;16.416;2023-02-01T10:14:48;10.70;59.70
75927;DHT22;64605;48.296;16.416;2023-02-01T10:17:20;11.20;58.70
75927;DHT22;64605;48.296;16.416;2023-02-01T10:27:42;11.50;55.50
75927;DHT22;64605;48.296;16.416;2023-02-01T10:30:23;11.60;55.40
75927;DHT22;64605;48.296;16.416;2023-02-01T10:33:16;12.20;53.70
75927;DHT22;64605;48.296;16.416;2023-02-01T10:35:44;12.50;53.00
75927;DHT22;64605;48.296;16.416;2023-02-01T10:38:27;12.50;52.60
75927;DHT22;64605;48.296;16.416;2023-02-01T10:41:01;12.70;52.60
75927;DHT22;64605;48.296;16.416;2023-02-01T10:43:28;12.80;52.10
75927;DHT22;64605;48.296;16.416;2023-02-01T10:45:54;12.80;51.60
75927;DHT22;64605;48.296;16.416;2023-02-01T10:48:19;12.60;51.60
75927;DHT22;64605;48.296;16.416;2023-02-01T10:51:06;12.40;52.50
75927;DHT22;64605;48.296;16.416;2023-02-01T10:56:09;12.10;53.20
75927;DHT22;64605;48.296;16.416;2023-02-01T10:58:36;12.20;53.60
75927;DHT22;64605;48.296;16.416;2023-02-01T11:01:08;12.10;52.80
75927;DHT22;64605;48.296;16.416;2023-02-01T11:03:38;11.90;53.40
75927;DHT22;64605;48.296;16.416;2023-02-01T11:08:50;12.10;56.10
75927;DHT22;64605;48.296;16.416;2023-02-01T11:11:16;12.40;53.50
75927;DHT22;64605;48.296;16.416;2023-02-01T11:13:42;12.30;53.20
75927;DHT22;64605;48.296;16.416;2023-02-01T11:16:12;12.00;53.30
75927;DHT22;64605;48.296;16.416;2023-02-01T11:18:39;11.60;54.90
75927;DHT22;64605;48.296;16.416;2023-02-01T11:21:06;11.40;55.50
75927;DHT22;64605;48.296;16.416;2023-02-01T11:23:33;11.70;56.90
75927;DHT22;64605;48.296;16.416;2023-02-01T11:26:12;11.90;55.30
75927;DHT22;64605;48.296;16.416;2023-02-01T11:28:40;12.00;54.70
75927;DHT22;64605;48.296;16.416;2023-02-01T11:31:11;11.90;54.60
75927;DHT22;64605;48.296;16.416;2023-02-01T11:33:39;11.70;54.70
75927;DHT22;64605;48.296;16.416;2023-02-01T11:36:16;11.60;55.40
75927;DHT22;64605;48.296;16.416;2023-02-01T11:38:54;11.40;55.50
75927;DHT22;64605;48.296;16.416;2023-02-01T11:41:27;11.30;56.40
75927;DHT22;64605;48.296;16.416;2023-02-01T11:43:59;11.20;57.30
75927;DHT22;64605;48.296;16.416;2023-02-01T11:46:34;11.10;57.80
75927;DHT22;64605;48.296;16.416;2023-02-01T11:49:32;11.10;58.20
75927;DHT22;64605;48.296;16.416;2023-02-01T11:54:49;10.90;58.60
75927;DHT22;64605;48.296;16.416;2023-02-01T12:00:50;10.50;60.90
75927;DHT22;64605;48.296;16.416;2023-02-01T12:06:25;10.40;61.90
75927;DHT22;64605;48.296;16.416;2023-02-01T12:09:12;10.30;62.20
75927;DHT22;64605;48.296;16.416;2023-02-01T12:12:04;10.30;63.10
75927;DHT22;64605;48.296;16.416;2023-02-01T12:17:30;10.50;63.30
75927;DHT22;64605;48.296;16.416;2023-02-01T12:33:31;12.90;58.50
75927;DHT22;64605;48.296;16.416;2023-02-01T12:36:14;12.80;58.00
75927;DHT22;64605;48.296;16.416;2023-02-01T12:39:10;12.80;56.90
75927;DHT22;64605;48.296;16.416;2023-02-01T12:42:01;12.50;57.00
75927;DHT22;64605;48.296;16.416;2023-02-01T12:45:02;12.30;57.30
75927;DHT22;64605;48.296;16.416;2023-02-01T12:47:41;12.10;57.60
75927;DHT22;64605;48.296;16.416;2023-02-01T12:50:28;12.00;58.20
75927;DHT22;64605;48.296;16.416;2023-02-01T12:53:08;12.00;58.70
75927;DHT22;64605;48.296;16.416;2023-02-01T12:55:38;12.10;58.30
75927;DHT22;64605;48.296;16.416;2023-02-01T12:58:17;12.20;58.30
75927;DHT22;64605;48.296;16.416;2023-02-01T13:00:49;12.50;58.90
75927;DHT22;64605;48.296;16.416;2023-02-01T13:03:33;12.80;57.80
75927;DHT22;64605;48.296;16.416;2023-02-01T13:06:09;13.00;56.30
75927;DHT22;64605;48.296;16.416;2023-02-01T13:11:13;13.10;55.40
75927;DHT22;64605;48.296;16.416;2023-02-01T13:18:49;12.60;55.00
75927;DHT22;64605;48.296;16.416;2023-02-01T13:21:21;12.50;54.90
75927;DHT22;64605;48.296;16.416;2023-02-01T13:23:50;12.30;55.10
75927;DHT22;64605;48.296;16.416;2023-02-01T13:26:16;12.20;55.00
75927;DHT22;64605;48.296;16.416;2023-02-01T13:42:43;11.50;56.70
75927;DHT22;64605;48.296;16.416;2023-02-01T13:45:19;11.50;57.00
75927;DHT22;64605;48.296;16.416;2023-02-01T13:47:47;11.40;56.90
75927;DHT22;64605;48.296;16.416;2023-02-01T13:53:01;11.20;57.20
75927;DHT22;64605;48.296;16.416;2023-02-01T13:55:40;11.20;56.10
75927;DHT22;64605;48.296;16.416;2023-02-01T13:58:20;11.00;55.80
75927;DHT22;64605;48.296;16.416;2023-02-01T14:00:48;11.00;56.40
75927;DHT22;64605;48.296;16.416;2023-02-01T14:03:42;11.00;56.50
75927;DHT22;64605;48.296;16.416;2023-02-01T14:11:54;10.90;53.60
75927;DHT22;64605;48.296;16.416;2023-02-01T14:19:25;10.80;52.70
75927;DHT22;64605;48.296;16.416;2023-02-01T14:21:56;10.70;53.50
75927;DHT22;64605;48.296;16.416;2023-02-01T14:24:34;10.70;53.40
75927;DHT22;64605;48.296;16.416;2023-02-01T14:27:45;10.70;53.40
75927;DHT22;64605;48.296;16.416;2023-02-01T14:30:05;10.60;53.80
75927;DHT22;64605;48.296;16.416;2023-02-01T14:32:40;10.50;53.70
75927;DHT22;64605;48.296;16.416;2023-02-01T14:35:18;10.50;54.20
75927;DHT22;64605;48.296;16.416;2023-02-01T14:37:45;10.40;54.70
75927;DHT22;64605;48.296;16.416;2023-02-01T14:47:53;10.30;55.10
75927;DHT22;64605;48.296;16.416;2023-02-01T15:01:27;10.10;55.60
75927;DHT22;64605;48.296;16.416;2023-02-01T15:09:04;9.90;55.80
75927;DHT22;64605;48.296;16.416;2023-02-01T15:11:32;9.80;55.90
75927;DHT22;64605;48.296;16.416;2023-02-01T15:14:18;9.80;56.10
75927;DHT22;64605;48.296;16.416;2023-02-01T15:16:43;9.70;56.30
75927;DHT22;64605;48.296;16.416;2023-02-01T15:19:15;9.60;56.60
75927;DHT22;64605;48.296;16.416;2023-02-01T15:21:47;9.50;56.60
75927;DHT22;64605;48.296;16.416;2023-02-01T15:24:30;9.40;57.00
75927;DHT22;64605;48.296;16.416;2023-02-01T15:27:03;9.30;57.20
75927;DHT22;64605;48.296;16.416;2023-02-01T15:29:29;9.30;57.60
75927;DHT22;64605;48.296;16.416;2023-02-01T15:31:58;9.20;57.80
75927;DHT22;64605;48.296;16.416;2023-02-01T15:34:47;9.20;57.90
75927;DHT22;64605;48.296;16.416;2023-02-01T15:37:14;9.20;57.80
75927;DHT22;64605;48.296;16.416;2023-02-01T15:40:04;9.00;57.90
75927;DHT22;64605;48.296;16.416;2023-02-01T15:42:32;9.00;57.90
75927;DHT22;64605;48.296;16.416;2023-02-01T15:45:00;9.00;57.90
75927;DHT22;64605;48.296;16.416;2023-02-01T15:47:28;8.90;57.90
75927;DHT22;64605;48.296;16.416;2023-02-01T15:49:58;8.80;58.10
75927;DHT22;64605;48.296;16.416;2023-02-01T15:52:34;8.80;58.10
75927;DHT22;64605;48.296;16.416;2023-02-01T15:55:03;8.70;58.20
75927;DHT22;64605;48.296;16.416;2023-02-01T15:57:33;8.60;58.40
75927;DHT22;64605;48.296;16.416;2023-02-01T16:00:06;8.60;58.70
75927;DHT22;64605;48.296;16.416;2023-02-01T16:02:42;8.50;58.70
75927;DHT22;64605;48.296;16.416;2023-02-01T16:05:35;8.50;58.80
75927;DHT22;64605;48.296;16.416;2023-02-01T16:08:15;8.40;58.70
75927;DHT22;64605;48.296;16.416;2023-02-01T16:10:43;8.40;58.70
75927;DHT22;64605;48.296;16.416;2023-02-01T16:13:10;8.40;58.70
75927;DHT22;64605;48.296;16.416;2023-02-01T16:15:36;8.30;58.70
75927;DHT22;64605;48.296;16.416;2023-02-01T16:18:02;8.30;58.60
75927;DHT22;64605;48.296;16.416;2023-02-01T16:20:28;8.40;58.20
75927;DHT22;64605;48.296;16.416;2023-02-01T16:22:55;8.40;58.20
75927;DHT22;64605;48.296;16.416;2023-02-01T16:25:20;8.40;58.10
75927;DHT22;64605;48.296;16.416;2023-02-01T16:27:46;8.40;58.00
75927;DHT22;64605;48.296;16.416;2023-02-01T16:30:12;8.50;57.80
75927;DHT22;64605;48.296;16.416;2023-02-01T16:32:38;8.50;57.70
75927;DHT22;64605;48.296;16.416;2023-02-01T16:35:05;8.50;57.30
75927;DHT22;64605;48.296;16.416;2023-02-01T16:37:36;8.50;57.60
75927;DHT22;64605;48.296;16.416;2023-02-01T16:40:02;8.50;57.50
75927;DHT22;64605;48.296;16.416;2023-02-01T16:42:27;8.60;57.50
75927;DHT22;64605;48.296;16.416;2023-02-01T16:44:55;8.50;57.70
75927;DHT22;64605;48.296;16.416;2023-02-01T16:47:22;8.60;57.70
75927;DHT22;64605;48.296;16.416;2023-02-01T16:49:48;8.60;57.80
75927;DHT22;64605;48.296;16.416;2023-02-01T16:52:21;8.60;57.90
75927;DHT22;64605;48.296;16.416;2023-02-01T16:54:47;8.60;57.80
75927;DHT22;64605;48.296;16.416;2023-02-01T16:57:15;8.60;57.90
75927;DHT22;64605;48.296;16.416;2023-02-01T16:59:42;8.60;59.00
75927;DHT22;64605;48.296;16.416;2023-02-01T17:02:16;8.60;58.50
75927;DHT22;64605;48.296;16.416;2023-02-01T17:04:42;8.60;58.60
75927;DHT22;64605;48.296;16.416;2023-02-01T17:07:15;8.50;58.60
75927;DHT22;64605;48.296;16.416;2023-02-01T17:09:42;8.50;58.90
75927;DHT22;64605;48.296;16.416;2023-02-01T17:12:28;8.60;58.90
75927;DHT22;64605;48.296;16.416;2023-02-01T17:14:55;8.50;59.00
75927;DHT22;64605;48.296;16.416;2023-02-01T17:17:21;8.50;59.30
75927;DHT22;64605;48.296;16.416;2023-02-01T17:19:50;8.50;59.50
75927;DHT22;64605;48.296;16.416;2023-02-01T17:22:19;8.50;59.80
75927;DHT22;64605;48.296;16.416;2023-02-01T17:24:46;8.50;60.10
75927;DHT22;64605;48.296;16.416;2023-02-01T17:27:11;8.50;60.40
75927;DHT22;64605;48.296;16.416;2023-02-01T17:29:37;8.40;60.70
75927;DHT22;64605;48.296;16.416;2023-02-01T17:32:03;8.40;60.90
75927;DHT22;64605;48.296;16.416;2023-02-01T17:34:29;8.40;61.30
75927;DHT22;64605;48.296;16.416;2023-02-01T17:36:55;8.40;61.80
75927;DHT22;64605;48.296;16.416;2023-02-01T17:39:20;8.30;62.00
75927;DHT22;64605;48.296;16.416;2023-02-01T17:42:08;8.30;62.20
75927;DHT22;64605;48.296;16.416;2023-02-01T17:44:34;8.30;63.50
75927;DHT22;64605;48.296;16.416;2023-02-01T17:47:00;8.30;62.70
75927;DHT22;64605;48.296;16.416;2023-02-01T17:49:26;8.40;62.70
75927;DHT22;64605;48.296;16.416;2023-02-01T17:51:56;8.40;62.50
75927;DHT22;64605;48.296;16.416;2023-02-01T17:54:21;8.40;62.50
75927;DHT22;64605;48.296;16.416;2023-02-01T17:56:47;8.50;62.40
75927;DHT22;64605;48.296;16.416;2023-02-01T17:59:14;8.40;62.40
75927;DHT22;64605;48.296;16.416;2023-02-01T18:01:40;8.40;62.50
75927;DHT22;64605;48.296;16.416;2023-02-01T18:04:11;8.40;62.40
75927;DHT22;64605;48.296;16.416;2023-02-01T18:06:37;8.50;62.50
75927;DHT22;64605;48.296;16.416;2023-02-01T18:09:03;8.50;62.30